sensor_id;sensor_type;location;lat;lon;timestamp;P1;durP1;ratioP1;P2;durP2;ratioP2
18176;SDS011;9213;50.858;3.964;2023-05-15T00:02:10;39.87;;;27.37;;
18176;SDS011;9213;50.858;3.964;2023-05-15T00:04:38;37.40;;;25.83;;
18176;SDS011;9213;50.858;3.964;2023-05-15T00:07:06;40.67;;;26.87;;
18176;SDS011;9213;50.858;3.964;2023-05-15T00:09:33;38.07;;;27.70;;
18176;SDS011;9213;50.858;3.964;2023-05-15T00:12:00;40.77;;;26.83;;
18176;SDS011;9213;50.858;3.964;2023-05-15T00:14:28;37.93;;;26.83;;
18176;SDS011;9213;50.858;3.964;2023-05-15T00:16:55;40.17;;;26.30;;
18176;SDS011;9213;50.858;3.964;2023-05-15T00:19:21;39.60;;;27.03;;
18176;SDS011;9213;50.858;3.964;2023-05-15T00:21:48;40.87;;;29.10;;
18176;SDS011;9213;50.858;3.964;2023-05-15T00:24:17;41.73;;;28.23;;
18176;SDS011;9213;50.858;3.964;2023-05-15T00:26:44;37.73;;;27.23;;
18176;SDS011;9213;50.858;3.964;2023-05-15T00:29:12;39.23;;;27.20;;
18176;SDS011;9213;50.858;3.964;2023-05-15T00:31:39;42.80;;;29.60;;
18176;SDS011;9213;50.858;3.964;2023-05-15T00:34:06;41.47;;;29.30;;
18176;SDS011;9213;50.858;3.964;2023-05-15T00:36:32;42.33;;;29.37;;
18176;SDS011;9213;50.858;3.964;2023-05-15T00:38:59;43.20;;;30.23;;
18176;SDS011;9213;50.858;3.964;2023-05-15T00:41:28;40.13;;;29.53;;
18176;SDS011;9213;50.858;3.964;2023-05-15T00:43:57;42.30;;;29.13;;
18176;SDS011;9213;50.858;3.964;2023-05-15T00:46:26;45.70;;;31.37;;
18176;SDS011;9213;50.858;3.964;2023-05-15T00:48:53;47.43;;;32.40;;
18176;SDS011;9213;50.858;3.964;2023-05-15T00:51:22;51.27;;;32.23;;
18176;SDS011;9213;50.858;3.964;2023-05-15T00:53:50;48.37;;;33.73;;
18176;SDS011;9213;50.858;3.964;2023-05-15T00:56:17;50.83;;;32.60;;
18176;SDS011;9213;50.858;3.964;2023-05-15T00:58:46;53.30;;;34.00;;
18176;SDS011;9213;50.858;3.964;2023-05-15T01:01:15;47.03;;;32.03;;
18176;SDS011;9213;50.858;3.964;2023-05-15T01:03:42;54.40;;;34.87;;
18176;SDS011;9213;50.858;3.964;2023-05-15T01:06:09;48.73;;;33.87;;
18176;SDS011;9213;50.858;3.964;2023-05-15T01:08:37;48.23;;;33.33;;
18176;SDS011;9213;50.858;3.964;2023-05-15T01:11:07;49.00;;;33.53;;
18176;SDS011;9213;50.858;3.964;2023-05-15T01:13:35;52.37;;;34.77;;
18176;SDS011;9213;50.858;3.964;2023-05-15T01:16:03;51.20;;;36.20;;
18176;SDS011;9213;50.858;3.964;2023-05-15T01:18:31;58.57;;;37.17;;
18176;SDS011;9213;50.858;3.964;2023-05-15T01:23:56;53.37;;;37.20;;
18176;SDS011;9213;50.858;3.964;2023-05-15T01:29:45;53.20;;;34.97;;
18176;SDS011;9213;50.858;3.964;2023-05-15T01:32:22;54.37;;;37.47;;
18176;SDS011;9213;50.858;3.964;2023-05-15T01:34:56;56.93;;;36.87;;
18176;SDS011;9213;50.858;3.964;2023-05-15T01:37:27;61.97;;;37.40;;
18176;SDS011;9213;50.858;3.964;2023-05-15T01:39:59;65.70;;;39.20;;
18176;SDS011;9213;50.858;3.964;2023-05-15T01:42:32;69.70;;;39.77;;
18176;SDS011;9213;50.858;3.964;2023-05-15T01:45:00;68.90;;;40.37;;
18176;SDS011;9213;50.858;3.964;2023-05-15T01:47:30;68.07;;;40.03;;
18176;SDS011;9213;50.858;3.964;2023-05-15T01:50:01;73.20;;;41.23;;
18176;SDS011;9213;50.858;3.964;2023-05-15T01:52:32;71.93;;;41.43;;
18176;SDS011;9213;50.858;3.964;2023-05-15T01:55:00;71.23;;;41.77;;
18176;SDS011;9213;50.858;3.964;2023-05-15T01:57:28;67.07;;;41.67;;
18176;SDS011;9213;50.858;3.964;2023-05-15T01:59:58;67.43;;;42.10;;
18176;SDS011;9213;50.858;3.964;2023-05-15T02:02:26;65.03;;;41.30;;
18176;SDS011;9213;50.858;3.964;2023-05-15T02:04:54;62.27;;;40.77;;
18176;SDS011;9213;50.858;3.964;2023-05-15T02:07:22;67.07;;;42.20;;
18176;SDS011;9213;50.858;3.964;2023-05-15T02:09:50;66.43;;;40.73;;
18176;SDS011;9213;50.858;3.964;2023-05-15T02:12:17;78.20;;;42.67;;
18176;SDS011;9213;50.858;3.964;2023-05-15T02:14:47;72.40;;;42.70;;
18176;SDS011;9213;50.858;3.964;2023-05-15T02:17:15;70.80;;;40.77;;
18176;SDS011;9213;50.858;3.964;2023-05-15T02:19:42;75.73;;;40.97;;
18176;SDS011;9213;50.858;3.964;2023-05-15T02:22:09;69.07;;;40.67;;
18176;SDS011;9213;50.858;3.964;2023-05-15T02:24:36;102.00;;;42.47;;
18176;SDS011;9213;50.858;3.964;2023-05-15T02:27:04;73.50;;;41.33;;
18176;SDS011;9213;50.858;3.964;2023-05-15T02:29:41;67.70;;;39.37;;
18176;SDS011;9213;50.858;3.964;2023-05-15T02:32:17;96.17;;;40.33;;
18176;SDS011;9213;50.858;3.964;2023-05-15T02:34:51;85.83;;;38.53;;
18176;SDS011;9213;50.858;3.964;2023-05-15T02:37:25;80.00;;;37.70;;
18176;SDS011;9213;50.858;3.964;2023-05-15T02:39:55;91.73;;;40.30;;
18176;SDS011;9213;50.858;3.964;2023-05-15T02:42:23;73.83;;;39.67;;
18176;SDS011;9213;50.858;3.964;2023-05-15T02:44:52;78.70;;;41.40;;
18176;SDS011;9213;50.858;3.964;2023-05-15T02:47:21;82.03;;;41.60;;
18176;SDS011;9213;50.858;3.964;2023-05-15T02:49:48;70.97;;;40.43;;
18176;SDS011;9213;50.858;3.964;2023-05-15T02:52:16;77.97;;;43.10;;
18176;SDS011;9213;50.858;3.964;2023-05-15T02:54:43;71.33;;;42.43;;
18176;SDS011;9213;50.858;3.964;2023-05-15T02:57:10;71.57;;;42.73;;
18176;SDS011;9213;50.858;3.964;2023-05-15T02:59:37;69.67;;;40.60;;
18176;SDS011;9213;50.858;3.964;2023-05-15T03:02:04;63.77;;;38.33;;
18176;SDS011;9213;50.858;3.964;2023-05-15T03:04:32;61.43;;;38.53;;
18176;SDS011;9213;50.858;3.964;2023-05-15T03:06:59;64.93;;;40.20;;
18176;SDS011;9213;50.858;3.964;2023-05-15T03:09:26;61.43;;;38.67;;
18176;SDS011;9213;50.858;3.964;2023-05-15T03:11:53;58.17;;;37.57;;
18176;SDS011;9213;50.858;3.964;2023-05-15T03:14:20;59.93;;;38.67;;
18176;SDS011;9213;50.858;3.964;2023-05-15T03:16:47;58.13;;;37.80;;
18176;SDS011;9213;50.858;3.964;2023-05-15T03:19:13;66.77;;;38.77;;
18176;SDS011;9213;50.858;3.964;2023-05-15T03:21:42;61.37;;;38.30;;
18176;SDS011;9213;50.858;3.964;2023-05-15T03:24:09;62.30;;;37.17;;
18176;SDS011;9213;50.858;3.964;2023-05-15T03:26:36;66.43;;;41.20;;
18176;SDS011;9213;50.858;3.964;2023-05-15T03:29:04;62.30;;;40.00;;
18176;SDS011;9213;50.858;3.964;2023-05-15T03:31:31;74.40;;;40.17;;
18176;SDS011;9213;50.858;3.964;2023-05-15T03:33:58;81.67;;;40.70;;
18176;SDS011;9213;50.858;3.964;2023-05-15T03:36:25;71.10;;;41.70;;
18176;SDS011;9213;50.858;3.964;2023-05-15T03:38:53;66.27;;;39.37;;
18176;SDS011;9213;50.858;3.964;2023-05-15T03:41:20;86.80;;;41.00;;
18176;SDS011;9213;50.858;3.964;2023-05-15T03:43:47;82.10;;;41.73;;
18176;SDS011;9213;50.858;3.964;2023-05-15T03:46:14;73.73;;;40.07;;
18176;SDS011;9213;50.858;3.964;2023-05-15T03:48:41;74.23;;;40.23;;
18176;SDS011;9213;50.858;3.964;2023-05-15T03:51:07;88.80;;;40.77;;
18176;SDS011;9213;50.858;3.964;2023-05-15T03:53:35;95.50;;;40.13;;
18176;SDS011;9213;50.858;3.964;2023-05-15T03:56:03;86.50;;;41.17;;
18176;SDS011;9213;50.858;3.964;2023-05-15T03:58:30;122.87;;;41.07;;
18176;SDS011;9213;50.858;3.964;2023-05-15T04:00:57;74.50;;;40.70;;
18176;SDS011;9213;50.858;3.964;2023-05-15T04:03:24;93.07;;;42.27;;
18176;SDS011;9213;50.858;3.964;2023-05-15T04:05:51;89.00;;;40.30;;
18176;SDS011;9213;50.858;3.964;2023-05-15T04:08:18;92.13;;;41.20;;
18176;SDS011;9213;50.858;3.964;2023-05-15T04:10:45;83.33;;;40.17;;
18176;SDS011;9213;50.858;3.964;2023-05-15T04:13:13;133.73;;;43.13;;
18176;SDS011;9213;50.858;3.964;2023-05-15T04:15:40;84.57;;;41.70;;
18176;SDS011;9213;50.858;3.964;2023-05-15T04:18:07;131.63;;;43.17;;
18176;SDS011;9213;50.858;3.964;2023-05-15T04:20:34;105.13;;;43.67;;
18176;SDS011;9213;50.858;3.964;2023-05-15T04:23:00;99.13;;;42.17;;
18176;SDS011;9213;50.858;3.964;2023-05-15T04:25:28;95.93;;;42.77;;
18176;SDS011;9213;50.858;3.964;2023-05-15T04:27:55;78.80;;;40.97;;
18176;SDS011;9213;50.858;3.964;2023-05-15T04:30:23;80.77;;;38.87;;
18176;SDS011;9213;50.858;3.964;2023-05-15T04:32:50;83.30;;;40.50;;
18176;SDS011;9213;50.858;3.964;2023-05-15T04:35:17;81.33;;;40.13;;
18176;SDS011;9213;50.858;3.964;2023-05-15T04:37:44;83.07;;;39.47;;
18176;SDS011;9213;50.858;3.964;2023-05-15T04:40:11;99.00;;;40.80;;
18176;SDS011;9213;50.858;3.964;2023-05-15T04:42:40;110.20;;;42.17;;
18176;SDS011;9213;50.858;3.964;2023-05-15T04:45:07;97.10;;;42.50;;
18176;SDS011;9213;50.858;3.964;2023-05-15T04:47:36;78.00;;;40.40;;
18176;SDS011;9213;50.858;3.964;2023-05-15T04:50:03;89.27;;;41.93;;
18176;SDS011;9213;50.858;3.964;2023-05-15T04:52:31;107.43;;;40.67;;
18176;SDS011;9213;50.858;3.964;2023-05-15T04:54:58;84.20;;;41.33;;
18176;SDS011;9213;50.858;3.964;2023-05-15T04:57:25;90.13;;;42.87;;
18176;SDS011;9213;50.858;3.964;2023-05-15T04:59:52;88.90;;;42.70;;
18176;SDS011;9213;50.858;3.964;2023-05-15T05:02:19;86.63;;;41.23;;
18176;SDS011;9213;50.858;3.964;2023-05-15T05:04:48;83.50;;;41.77;;
18176;SDS011;9213;50.858;3.964;2023-05-15T05:07:16;78.87;;;42.73;;
18176;SDS011;9213;50.858;3.964;2023-05-15T05:09:42;74.63;;;39.17;;
18176;SDS011;9213;50.858;3.964;2023-05-15T05:12:10;79.37;;;39.93;;
18176;SDS011;9213;50.858;3.964;2023-05-15T05:14:37;76.90;;;38.00;;
18176;SDS011;9213;50.858;3.964;2023-05-15T05:17:06;83.10;;;40.33;;
18176;SDS011;9213;50.858;3.964;2023-05-15T05:19:33;72.30;;;38.30;;
18176;SDS011;9213;50.858;3.964;2023-05-15T05:22:02;72.07;;;38.73;;
18176;SDS011;9213;50.858;3.964;2023-05-15T05:24:30;81.53;;;38.73;;
18176;SDS011;9213;50.858;3.964;2023-05-15T05:26:57;79.03;;;38.50;;
18176;SDS011;9213;50.858;3.964;2023-05-15T05:29:24;74.17;;;38.17;;
18176;SDS011;9213;50.858;3.964;2023-05-15T05:31:51;81.20;;;38.53;;
18176;SDS011;9213;50.858;3.964;2023-05-15T05:34:18;86.63;;;38.70;;
18176;SDS011;9213;50.858;3.964;2023-05-15T05:36:45;83.77;;;38.97;;
18176;SDS011;9213;50.858;3.964;2023-05-15T05:39:14;85.63;;;38.57;;
18176;SDS011;9213;50.858;3.964;2023-05-15T05:41:41;84.70;;;38.00;;
18176;SDS011;9213;50.858;3.964;2023-05-15T05:44:08;87.20;;;38.80;;
18176;SDS011;9213;50.858;3.964;2023-05-15T05:46:35;83.07;;;37.93;;
18176;SDS011;9213;50.858;3.964;2023-05-15T05:49:02;78.73;;;36.70;;
18176;SDS011;9213;50.858;3.964;2023-05-15T05:51:29;81.00;;;35.40;;
18176;SDS011;9213;50.858;3.964;2023-05-15T05:53:56;81.30;;;35.53;;
18176;SDS011;9213;50.858;3.964;2023-05-15T05:56:25;78.17;;;36.40;;
18176;SDS011;9213;50.858;3.964;2023-05-15T05:58:52;81.83;;;36.30;;
18176;SDS011;9213;50.858;3.964;2023-05-15T06:01:20;79.97;;;34.77;;
18176;SDS011;9213;50.858;3.964;2023-05-15T06:03:47;76.30;;;33.77;;
18176;SDS011;9213;50.858;3.964;2023-05-15T06:06:14;72.13;;;31.93;;
18176;SDS011;9213;50.858;3.964;2023-05-15T06:08:41;69.10;;;32.20;;
18176;SDS011;9213;50.858;3.964;2023-05-15T06:11:08;70.60;;;32.37;;
18176;SDS011;9213;50.858;3.964;2023-05-15T06:13:36;66.80;;;30.00;;
18176;SDS011;9213;50.858;3.964;2023-05-15T06:16:04;62.23;;;28.43;;
18176;SDS011;9213;50.858;3.964;2023-05-15T06:18:31;70.03;;;31.37;;
18176;SDS011;9213;50.858;3.964;2023-05-15T06:20:58;75.33;;;31.77;;
18176;SDS011;9213;50.858;3.964;2023-05-15T06:23:25;73.33;;;33.20;;
18176;SDS011;9213;50.858;3.964;2023-05-15T06:25:52;73.90;;;31.80;;
18176;SDS011;9213;50.858;3.964;2023-05-15T06:28:19;77.67;;;32.20;;
18176;SDS011;9213;50.858;3.964;2023-05-15T06:30:47;74.30;;;32.03;;
18176;SDS011;9213;50.858;3.964;2023-05-15T06:33:14;79.03;;;32.47;;
18176;SDS011;9213;50.858;3.964;2023-05-15T06:35:41;76.43;;;32.03;;
18176;SDS011;9213;50.858;3.964;2023-05-15T06:38:08;70.43;;;30.77;;
18176;SDS011;9213;50.858;3.964;2023-05-15T06:40:35;63.57;;;30.10;;
18176;SDS011;9213;50.858;3.964;2023-05-15T06:43:02;70.87;;;31.37;;
18176;SDS011;9213;50.858;3.964;2023-05-15T06:45:28;76.03;;;30.40;;
18176;SDS011;9213;50.858;3.964;2023-05-15T06:47:57;74.47;;;31.27;;
18176;SDS011;9213;50.858;3.964;2023-05-15T06:50:24;68.70;;;29.73;;
18176;SDS011;9213;50.858;3.964;2023-05-15T06:52:50;67.17;;;30.57;;
18176;SDS011;9213;50.858;3.964;2023-05-15T06:55:18;65.87;;;29.23;;
18176;SDS011;9213;50.858;3.964;2023-05-15T06:57:45;71.40;;;30.63;;
18176;SDS011;9213;50.858;3.964;2023-05-15T07:00:13;67.77;;;30.47;;
18176;SDS011;9213;50.858;3.964;2023-05-15T07:02:40;63.30;;;28.67;;
18176;SDS011;9213;50.858;3.964;2023-05-15T07:05:09;68.53;;;30.20;;
18176;SDS011;9213;50.858;3.964;2023-05-15T07:07:36;62.07;;;27.23;;
18176;SDS011;9213;50.858;3.964;2023-05-15T07:10:04;57.97;;;28.23;;
18176;SDS011;9213;50.858;3.964;2023-05-15T07:12:31;54.23;;;26.20;;
18176;SDS011;9213;50.858;3.964;2023-05-15T07:14:58;53.97;;;26.83;;
18176;SDS011;9213;50.858;3.964;2023-05-15T07:17:25;60.30;;;28.20;;
18176;SDS011;9213;50.858;3.964;2023-05-15T07:19:52;53.50;;;26.03;;
18176;SDS011;9213;50.858;3.964;2023-05-15T07:22:20;54.60;;;27.63;;
18176;SDS011;9213;50.858;3.964;2023-05-15T07:24:47;59.57;;;29.87;;
18176;SDS011;9213;50.858;3.964;2023-05-15T07:27:14;60.10;;;27.63;;
18176;SDS011;9213;50.858;3.964;2023-05-15T07:29:41;57.90;;;29.30;;
18176;SDS011;9213;50.858;3.964;2023-05-15T07:32:08;58.03;;;29.30;;
18176;SDS011;9213;50.858;3.964;2023-05-15T07:34:35;61.93;;;29.60;;
18176;SDS011;9213;50.858;3.964;2023-05-15T07:37:02;58.50;;;28.53;;
18176;SDS011;9213;50.858;3.964;2023-05-15T07:39:30;64.33;;;28.07;;
18176;SDS011;9213;50.858;3.964;2023-05-15T07:41:57;58.80;;;28.77;;
18176;SDS011;9213;50.858;3.964;2023-05-15T07:44:24;60.00;;;28.50;;
18176;SDS011;9213;50.858;3.964;2023-05-15T07:46:51;58.37;;;28.13;;
18176;SDS011;9213;50.858;3.964;2023-05-15T07:49:20;62.87;;;29.33;;
18176;SDS011;9213;50.858;3.964;2023-05-15T07:51:47;66.70;;;28.90;;
18176;SDS011;9213;50.858;3.964;2023-05-15T07:54:14;60.40;;;28.60;;
18176;SDS011;9213;50.858;3.964;2023-05-15T07:56:42;61.83;;;29.57;;
18176;SDS011;9213;50.858;3.964;2023-05-15T07:59:09;66.37;;;30.60;;
18176;SDS011;9213;50.858;3.964;2023-05-15T08:01:36;65.70;;;31.87;;
18176;SDS011;9213;50.858;3.964;2023-05-15T08:04:04;62.90;;;28.40;;
18176;SDS011;9213;50.858;3.964;2023-05-15T08:06:32;62.23;;;29.37;;
18176;SDS011;9213;50.858;3.964;2023-05-15T08:09:01;63.00;;;30.63;;
18176;SDS011;9213;50.858;3.964;2023-05-15T08:11:28;67.53;;;28.80;;
18176;SDS011;9213;50.858;3.964;2023-05-15T08:13:57;64.50;;;30.73;;
18176;SDS011;9213;50.858;3.964;2023-05-15T08:16:23;64.33;;;29.37;;
18176;SDS011;9213;50.858;3.964;2023-05-15T08:18:50;64.50;;;29.90;;
18176;SDS011;9213;50.858;3.964;2023-05-15T08:21:22;56.70;;;27.60;;
18176;SDS011;9213;50.858;3.964;2023-05-15T08:23:49;55.73;;;27.67;;
18176;SDS011;9213;50.858;3.964;2023-05-15T08:26:16;58.33;;;28.40;;
18176;SDS011;9213;50.858;3.964;2023-05-15T08:28:43;61.13;;;30.33;;
18176;SDS011;9213;50.858;3.964;2023-05-15T08:31:11;60.17;;;30.47;;
18176;SDS011;9213;50.858;3.964;2023-05-15T08:33:38;53.73;;;28.03;;
18176;SDS011;9213;50.858;3.964;2023-05-15T08:36:05;57.83;;;27.97;;
18176;SDS011;9213;50.858;3.964;2023-05-15T08:38:32;53.17;;;28.30;;
18176;SDS011;9213;50.858;3.964;2023-05-15T08:41:01;61.77;;;29.53;;
18176;SDS011;9213;50.858;3.964;2023-05-15T08:43:33;56.20;;;29.30;;
18176;SDS011;9213;50.858;3.964;2023-05-15T08:46:03;55.23;;;29.27;;
18176;SDS011;9213;50.858;3.964;2023-05-15T08:48:33;53.93;;;28.40;;
18176;SDS011;9213;50.858;3.964;2023-05-15T08:51:02;55.20;;;29.73;;
18176;SDS011;9213;50.858;3.964;2023-05-15T08:53:29;52.03;;;28.00;;
18176;SDS011;9213;50.858;3.964;2023-05-15T08:55:57;56.63;;;29.83;;
18176;SDS011;9213;50.858;3.964;2023-05-15T08:58:24;51.90;;;30.30;;
18176;SDS011;9213;50.858;3.964;2023-05-15T09:00:52;56.07;;;30.60;;
18176;SDS011;9213;50.858;3.964;2023-05-15T09:03:20;51.57;;;29.40;;
18176;SDS011;9213;50.858;3.964;2023-05-15T09:05:49;54.40;;;29.60;;
18176;SDS011;9213;50.858;3.964;2023-05-15T09:08:18;53.87;;;31.10;;
18176;SDS011;9213;50.858;3.964;2023-05-15T09:10:47;54.00;;;30.63;;
18176;SDS011;9213;50.858;3.964;2023-05-15T09:13:14;54.93;;;30.63;;
18176;SDS011;9213;50.858;3.964;2023-05-15T09:15:41;50.13;;;29.30;;
18176;SDS011;9213;50.858;3.964;2023-05-15T09:18:08;50.97;;;29.40;;
18176;SDS011;9213;50.858;3.964;2023-05-15T09:20:35;47.77;;;28.97;;
18176;SDS011;9213;50.858;3.964;2023-05-15T09:23:05;50.13;;;30.50;;
18176;SDS011;9213;50.858;3.964;2023-05-15T09:25:47;48.77;;;29.73;;
18176;SDS011;9213;50.858;3.964;2023-05-15T09:28:27;51.50;;;30.27;;
18176;SDS011;9213;50.858;3.964;2023-05-15T09:30:56;47.63;;;28.43;;
18176;SDS011;9213;50.858;3.964;2023-05-15T09:33:27;49.47;;;29.20;;
18176;SDS011;9213;50.858;3.964;2023-05-15T09:35:56;49.40;;;30.77;;
18176;SDS011;9213;50.858;3.964;2023-05-15T09:38:24;46.33;;;30.33;;
18176;SDS011;9213;50.858;3.964;2023-05-15T09:40:59;53.23;;;32.27;;
18176;SDS011;9213;50.858;3.964;2023-05-15T09:43:27;51.80;;;31.40;;
18176;SDS011;9213;50.858;3.964;2023-05-15T09:45:55;51.03;;;30.77;;
18176;SDS011;9213;50.858;3.964;2023-05-15T09:48:22;46.80;;;30.20;;
18176;SDS011;9213;50.858;3.964;2023-05-15T09:50:49;48.03;;;29.80;;
18176;SDS011;9213;50.858;3.964;2023-05-15T09:53:16;46.43;;;29.47;;
18176;SDS011;9213;50.858;3.964;2023-05-15T09:55:44;51.63;;;31.07;;
18176;SDS011;9213;50.858;3.964;2023-05-15T09:58:14;51.40;;;31.87;;
18176;SDS011;9213;50.858;3.964;2023-05-15T10:00:42;48.47;;;30.30;;
18176;SDS011;9213;50.858;3.964;2023-05-15T10:03:10;53.13;;;31.67;;
18176;SDS011;9213;50.858;3.964;2023-05-15T10:05:37;48.80;;;30.67;;
18176;SDS011;9213;50.858;3.964;2023-05-15T10:08:04;54.27;;;31.30;;
18176;SDS011;9213;50.858;3.964;2023-05-15T10:10:32;48.77;;;31.77;;
18176;SDS011;9213;50.858;3.964;2023-05-15T10:13:00;45.87;;;30.20;;
18176;SDS011;9213;50.858;3.964;2023-05-15T10:15:29;47.47;;;30.37;;
18176;SDS011;9213;50.858;3.964;2023-05-15T10:17:56;49.40;;;31.03;;
18176;SDS011;9213;50.858;3.964;2023-05-15T10:20:25;47.47;;;31.30;;
18176;SDS011;9213;50.858;3.964;2023-05-15T10:22:52;49.27;;;31.77;;
18176;SDS011;9213;50.858;3.964;2023-05-15T10:25:25;49.17;;;30.73;;
18176;SDS011;9213;50.858;3.964;2023-05-15T10:27:56;50.40;;;31.37;;
18176;SDS011;9213;50.858;3.964;2023-05-15T10:30:25;50.33;;;31.43;;
18176;SDS011;9213;50.858;3.964;2023-05-15T10:32:53;46.83;;;31.43;;
18176;SDS011;9213;50.858;3.964;2023-05-15T10:35:21;50.30;;;31.93;;
18176;SDS011;9213;50.858;3.964;2023-05-15T10:37:48;46.17;;;30.37;;
18176;SDS011;9213;50.858;3.964;2023-05-15T10:40:16;48.57;;;29.93;;
18176;SDS011;9213;50.858;3.964;2023-05-15T10:42:43;52.60;;;31.73;;
18176;SDS011;9213;50.858;3.964;2023-05-15T10:45:11;50.90;;;30.47;;
18176;SDS011;9213;50.858;3.964;2023-05-15T10:47:40;51.30;;;31.33;;
18176;SDS011;9213;50.858;3.964;2023-05-15T10:50:09;52.50;;;32.97;;
18176;SDS011;9213;50.858;3.964;2023-05-15T10:52:38;53.87;;;33.07;;
18176;SDS011;9213;50.858;3.964;2023-05-15T10:55:06;49.90;;;30.37;;
18176;SDS011;9213;50.858;3.964;2023-05-15T10:57:34;47.47;;;29.80;;
18176;SDS011;9213;50.858;3.964;2023-05-15T11:00:02;49.80;;;28.73;;
18176;SDS011;9213;50.858;3.964;2023-05-15T11:02:30;50.17;;;30.77;;
18176;SDS011;9213;50.858;3.964;2023-05-15T11:05:05;49.60;;;30.13;;
18176;SDS011;9213;50.858;3.964;2023-05-15T11:07:33;47.20;;;29.73;;
18176;SDS011;9213;50.858;3.964;2023-05-15T11:10:08;50.90;;;29.77;;
18176;SDS011;9213;50.858;3.964;2023-05-15T11:13:02;50.17;;;30.33;;
18176;SDS011;9213;50.858;3.964;2023-05-15T11:15:39;53.37;;;31.10;;
18176;SDS011;9213;50.858;3.964;2023-05-15T11:18:08;48.27;;;28.67;;
18176;SDS011;9213;50.858;3.964;2023-05-15T11:20:39;48.40;;;29.23;;
18176;SDS011;9213;50.858;3.964;2023-05-15T11:23:07;49.63;;;30.40;;
18176;SDS011;9213;50.858;3.964;2023-05-15T11:25:35;52.03;;;30.23;;
18176;SDS011;9213;50.858;3.964;2023-05-15T11:28:02;47.97;;;30.30;;
18176;SDS011;9213;50.858;3.964;2023-05-15T11:30:35;55.13;;;31.27;;
18176;SDS011;9213;50.858;3.964;2023-05-15T11:33:03;49.97;;;29.70;;
18176;SDS011;9213;50.858;3.964;2023-05-15T11:35:34;50.07;;;30.97;;
18176;SDS011;9213;50.858;3.964;2023-05-15T11:38:10;49.30;;;30.73;;
18176;SDS011;9213;50.858;3.964;2023-05-15T11:40:43;49.97;;;28.50;;
18176;SDS011;9213;50.858;3.964;2023-05-15T11:43:16;44.07;;;25.33;;
18176;SDS011;9213;50.858;3.964;2023-05-15T11:45:45;42.43;;;24.67;;
18176;SDS011;9213;50.858;3.964;2023-05-15T11:48:14;46.13;;;25.13;;
18176;SDS011;9213;50.858;3.964;2023-05-15T11:50:42;41.50;;;23.43;;
18176;SDS011;9213;50.858;3.964;2023-05-15T11:53:11;45.20;;;24.70;;
18176;SDS011;9213;50.858;3.964;2023-05-15T11:55:41;43.83;;;23.53;;
18176;SDS011;9213;50.858;3.964;2023-05-15T11:58:12;38.80;;;21.30;;
18176;SDS011;9213;50.858;3.964;2023-05-15T12:00:40;40.40;;;21.60;;
18176;SDS011;9213;50.858;3.964;2023-05-15T12:03:14;36.20;;;19.47;;
18176;SDS011;9213;50.858;3.964;2023-05-15T12:05:42;31.10;;;16.30;;
18176;SDS011;9213;50.858;3.964;2023-05-15T12:08:09;37.10;;;18.90;;
18176;SDS011;9213;50.858;3.964;2023-05-15T12:10:41;35.17;;;16.90;;
18176;SDS011;9213;50.858;3.964;2023-05-15T12:13:09;32.90;;;17.03;;
18176;SDS011;9213;50.858;3.964;2023-05-15T12:15:36;21.83;;;12.37;;
18176;SDS011;9213;50.858;3.964;2023-05-15T12:18:04;18.37;;;10.13;;
18176;SDS011;9213;50.858;3.964;2023-05-15T12:20:33;14.20;;;8.23;;
18176;SDS011;9213;50.858;3.964;2023-05-15T12:23:01;13.00;;;6.90;;
18176;SDS011;9213;50.858;3.964;2023-05-15T12:25:29;6.27;;;4.77;;
18176;SDS011;9213;50.858;3.964;2023-05-15T12:27:58;6.03;;;3.47;;
18176;SDS011;9213;50.858;3.964;2023-05-15T12:30:27;4.97;;;3.07;;
18176;SDS011;9213;50.858;3.964;2023-05-15T12:32:58;5.27;;;3.20;;
18176;SDS011;9213;50.858;3.964;2023-05-15T12:35:27;4.87;;;3.53;;
18176;SDS011;9213;50.858;3.964;2023-05-15T12:37:54;5.53;;;3.50;;
18176;SDS011;9213;50.858;3.964;2023-05-15T12:40:21;4.03;;;3.20;;
18176;SDS011;9213;50.858;3.964;2023-05-15T12:42:50;6.30;;;3.20;;
18176;SDS011;9213;50.858;3.964;2023-05-15T12:45:21;4.27;;;3.07;;
18176;SDS011;9213;50.858;3.964;2023-05-15T12:47:49;3.60;;;2.77;;
18176;SDS011;9213;50.858;3.964;2023-05-15T12:50:17;7.43;;;4.73;;
18176;SDS011;9213;50.858;3.964;2023-05-15T12:52:45;8.37;;;6.67;;
18176;SDS011;9213;50.858;3.964;2023-05-15T12:55:17;9.60;;;7.33;;
18176;SDS011;9213;50.858;3.964;2023-05-15T12:57:47;10.50;;;7.23;;
18176;SDS011;9213;50.858;3.964;2023-05-15T13:00:14;13.43;;;7.23;;
18176;SDS011;9213;50.858;3.964;2023-05-15T13:02:44;12.50;;;8.70;;
18176;SDS011;9213;50.858;3.964;2023-05-15T13:05:11;9.63;;;6.53;;
18176;SDS011;9213;50.858;3.964;2023-05-15T13:07:39;7.70;;;6.60;;
18176;SDS011;9213;50.858;3.964;2023-05-15T13:10:08;9.43;;;6.87;;
18176;SDS011;9213;50.858;3.964;2023-05-15T13:12:36;12.90;;;6.93;;
18176;SDS011;9213;50.858;3.964;2023-05-15T13:15:03;11.40;;;7.00;;
18176;SDS011;9213;50.858;3.964;2023-05-15T13:17:31;10.43;;;6.57;;
18176;SDS011;9213;50.858;3.964;2023-05-15T13:20:01;8.90;;;5.07;;
18176;SDS011;9213;50.858;3.964;2023-05-15T13:22:29;4.63;;;3.53;;
18176;SDS011;9213;50.858;3.964;2023-05-15T13:24:57;6.97;;;3.73;;
18176;SDS011;9213;50.858;3.964;2023-05-15T13:27:24;6.87;;;4.47;;
18176;SDS011;9213;50.858;3.964;2023-05-15T13:29:51;8.47;;;5.50;;
18176;SDS011;9213;50.858;3.964;2023-05-15T13:32:18;6.93;;;5.37;;
18176;SDS011;9213;50.858;3.964;2023-05-15T13:34:45;9.10;;;4.83;;
18176;SDS011;9213;50.858;3.964;2023-05-15T13:37:14;9.50;;;4.80;;
18176;SDS011;9213;50.858;3.964;2023-05-15T13:39:41;12.57;;;4.33;;
18176;SDS011;9213;50.858;3.964;2023-05-15T13:42:08;6.00;;;4.30;;
18176;SDS011;9213;50.858;3.964;2023-05-15T13:44:35;6.87;;;4.30;;
18176;SDS011;9213;50.858;3.964;2023-05-15T13:47:02;6.07;;;4.17;;
18176;SDS011;9213;50.858;3.964;2023-05-15T13:49:29;8.27;;;4.30;;
18176;SDS011;9213;50.858;3.964;2023-05-15T13:51:56;4.67;;;3.30;;
18176;SDS011;9213;50.858;3.964;2023-05-15T13:54:24;6.77;;;4.20;;
18176;SDS011;9213;50.858;3.964;2023-05-15T13:56:51;7.03;;;4.00;;
18176;SDS011;9213;50.858;3.964;2023-05-15T13:59:18;9.57;;;4.53;;
18176;SDS011;9213;50.858;3.964;2023-05-15T14:01:45;6.77;;;4.30;;
18176;SDS011;9213;50.858;3.964;2023-05-15T14:04:12;6.30;;;4.40;;
18176;SDS011;9213;50.858;3.964;2023-05-15T14:06:39;5.80;;;4.60;;
18176;SDS011;9213;50.858;3.964;2023-05-15T14:09:06;7.90;;;4.73;;
18176;SDS011;9213;50.858;3.964;2023-05-15T14:11:34;8.20;;;5.27;;
18176;SDS011;9213;50.858;3.964;2023-05-15T14:14:01;8.47;;;5.27;;
18176;SDS011;9213;50.858;3.964;2023-05-15T14:16:29;7.53;;;4.90;;
18176;SDS011;9213;50.858;3.964;2023-05-15T14:18:55;7.77;;;5.10;;
18176;SDS011;9213;50.858;3.964;2023-05-15T14:21:23;10.20;;;5.60;;
18176;SDS011;9213;50.858;3.964;2023-05-15T14:23:50;6.33;;;5.20;;
18176;SDS011;9213;50.858;3.964;2023-05-15T14:26:17;10.00;;;6.03;;
18176;SDS011;9213;50.858;3.964;2023-05-15T14:28:45;11.23;;;5.87;;
18176;SDS011;9213;50.858;3.964;2023-05-15T14:31:12;10.13;;;5.13;;
18176;SDS011;9213;50.858;3.964;2023-05-15T14:33:39;7.67;;;4.60;;
18176;SDS011;9213;50.858;3.964;2023-05-15T14:36:06;10.50;;;4.93;;
18176;SDS011;9213;50.858;3.964;2023-05-15T14:38:33;10.13;;;4.60;;
18176;SDS011;9213;50.858;3.964;2023-05-15T14:41:02;11.13;;;4.67;;
18176;SDS011;9213;50.858;3.964;2023-05-15T14:43:30;10.23;;;4.97;;
18176;SDS011;9213;50.858;3.964;2023-05-15T14:45:58;6.60;;;4.87;;
18176;SDS011;9213;50.858;3.964;2023-05-15T14:48:25;11.13;;;5.10;;
18176;SDS011;9213;50.858;3.964;2023-05-15T14:50:54;8.70;;;5.00;;